Time;durP1;ratioP1;P1;durP2;ratioP2;P2;SDS_P1;SDS_P2;PMS_P1;PMS_P2;Temp;Humidity;BMP_temperature;BMP_pressure;BME280_temperature;BME280_humidity;BME280_pressure;Samples;Min_cycle;Max_cycle;Signal;HPM_P1;HPM_P2
2023/07/18 00:01:49;;;;;;;2.70;0.70;;;;;;;;;;5114823;28;20016;-60
2023/07/18 00:04:14;;;;;;;3.67;0.67;;;;;;;;;;5113982;28;20028;-61
2023/07/18 00:06:41;;;;;;;2.27;0.70;;;;;;;;;;5114885;28;20008;-61
2023/07/18 00:09:07;;;;;;;2.78;0.75;;;;;;;;;;5114064;28;20449;-60
2023/07/18 00:11:32;;;;;;;4.75;0.75;;;;;;;;;;5114796;28;20475;-61
2023/07/18 00:13:57;;;;;;;3.60;0.80;;;;;;;;;;5113767;28;20042;-62
2023/07/18 00:16:22;;;;;;;4.17;0.80;;;;;;;;;;5114705;28;20020;-61
2023/07/18 00:18:50;;;;;;;2.93;0.80;;;;;;;;;;5114834;28;20437;-60
2023/07/18 00:21:15;;;;;;;2.47;0.70;;;;;;;;;;5114395;28;20011;-60
2023/07/18 00:23:41;;;;;;;3.38;0.70;;;;;;;;;;5113762;27;20058;-62
2023/07/18 00:26:06;;;;;;;4.03;0.63;;;;;;;;;;5114144;28;20043;-61
2023/07/18 00:28:31;;;;;;;3.58;0.80;;;;;;;;;;5114432;28;20036;-61
2023/07/18 00:30:56;;;;;;;3.03;0.67;;;;;;;;;;5122634;27;20019;-60
2023/07/18 00:33:22;;;;;;;1.77;0.60;;;;;;;;;;5131295;27;20030;-60
2023/07/18 00:35:47;;;;;;;2.03;0.60;;;;;;;;;;5114317;28;20012;-60
2023/07/18 00:38:12;;;;;;;2.17;0.80;;;;;;;;;;5113981;28;20026;-60
2023/07/18 00:40:40;;;;;;;3.33;0.60;;;;;;;;;;5113929;28;20068;-59
2023/07/18 00:43:11;;;;;;;2.67;0.80;;;;;;;;;;5113344;28;20011;-61
2023/07/18 00:45:37;;;;;;;2.15;0.60;;;;;;;;;;5113687;28;20024;-61
2023/07/18 00:48:02;;;;;;;3.37;0.60;;;;;;;;;;5113981;28;20024;-62
2023/07/18 00:50:28;;;;;;;3.08;0.70;;;;;;;;;;5114249;27;20144;-62
2023/07/18 00:52:53;;;;;;;2.03;0.70;;;;;;;;;;5112504;28;20497;-60
2023/07/18 00:55:19;;;;;;;3.03;0.70;;;;;;;;;;5113638;28;20023;-59
2023/07/18 00:57:45;;;;;;;3.00;0.55;;;;;;;;;;5113857;28;20403;-60
2023/07/18 01:00:12;;;;;;;1.55;0.60;;;;;;;;;;5113644;28;20038;-59
2023/07/18 01:02:39;;;;;;;2.33;0.60;;;;;;;;;;5112468;28;20019;-61
2023/07/18 01:05:04;;;;;;;1.80;0.60;;;;;;;;;;5113567;28;20067;-62
2023/07/18 01:07:29;;;;;;;2.97;0.80;;;;;;;;;;5113754;28;20055;-62
2023/07/18 01:10:11;;;;;;;2.50;0.70;;;;;;;;;;5114267;28;20513;-62
2023/07/18 01:12:36;;;;;;;1.73;0.60;;;;;;;;;;5113114;28;20148;-59
2023/07/18 01:15:02;;;;;;;3.80;0.70;;;;;;;;;;5113524;28;20088;-62
2023/07/18 01:17:27;;;;;;;1.93;0.70;;;;;;;;;;5113604;28;20065;-62
2023/07/18 01:19:52;;;;;;;3.37;0.70;;;;;;;;;;5114121;28;20116;-61
2023/07/18 01:22:17;;;;;;;3.13;0.70;;;;;;;;;;5113779;28;20028;-60
2023/07/18 01:24:43;;;;;;;2.65;0.60;;;;;;;;;;5112543;28;20020;-62
2023/07/18 01:27:08;;;;;;;2.97;1.10;;;;;;;;;;5113356;28;20027;-62
2023/07/18 01:29:33;;;;;;;1.90;0.63;;;;;;;;;;5112848;27;20018;-61
2023/07/18 01:31:58;;;;;;;2.60;0.80;;;;;;;;;;5131362;27;20019;-62
2023/07/18 01:34:24;;;;;;;2.53;0.70;;;;;;;;;;5132727;27;20015;-60
2023/07/18 01:36:49;;;;;;;2.60;0.60;;;;;;;;;;5133589;27;20072;-59
2023/07/18 01:39:14;;;;;;;2.30;0.67;;;;;;;;;;5130084;27;20118;-61
2023/07/18 01:41:39;;;;;;;2.80;0.80;;;;;;;;;;5113072;27;20027;-60
2023/07/18 01:44:04;;;;;;;2.20;0.53;;;;;;;;;;5111971;28;20019;-61
2023/07/18 01:46:30;;;;;;;2.27;0.73;;;;;;;;;;5112632;28;20023;-60
2023/07/18 01:48:55;;;;;;;2.47;0.70;;;;;;;;;;5112861;28;20513;-61
2023/07/18 01:51:20;;;;;;;2.95;0.73;;;;;;;;;;5112864;28;20113;-60
2023/07/18 01:53:45;;;;;;;2.07;0.60;;;;;;;;;;5112643;28;20091;-60
2023/07/18 01:56:10;;;;;;;3.60;0.82;;;;;;;;;;5114121;28;20024;-61
2023/07/18 01:58:35;;;;;;;2.93;0.70;;;;;;;;;;5115281;28;20088;-60
2023/07/18 02:01:02;;;;;;;3.53;0.80;;;;;;;;;;5116136;28;20023;-62
2023/07/18 02:03:28;;;;;;;2.33;0.70;;;;;;;;;;5111984;28;20031;-62
2023/07/18 02:05:53;;;;;;;3.13;0.80;;;;;;;;;;5111887;28;20030;-62
2023/07/18 02:08:18;;;;;;;3.35;0.70;;;;;;;;;;5111481;27;20020;-61
2023/07/18 02:10:43;;;;;;;3.13;0.70;;;;;;;;;;5112135;28;20024;-61
2023/07/18 02:13:09;;;;;;;2.10;0.80;;;;;;;;;;5110466;28;20126;-61
2023/07/18 02:15:34;;;;;;;2.25;0.88;;;;;;;;;;5112122;28;20426;-60
2023/07/18 02:17:59;;;;;;;1.80;0.70;;;;;;;;;;5112242;28;20023;-60
2023/07/18 02:20:24;;;;;;;3.03;0.80;;;;;;;;;;5112429;28;20034;-60
2023/07/18 02:22:50;;;;;;;2.60;0.90;;;;;;;;;;5111744;28;20501;-59
2023/07/18 02:25:17;;;;;;;4.07;1.00;;;;;;;;;;5111739;27;20028;-61
2023/07/18 02:27:42;;;;;;;2.90;0.70;;;;;;;;;;5110680;28;20027;-60
2023/07/18 02:30:11;;;;;;;2.83;0.70;;;;;;;;;;5122682;27;20491;-61
2023/07/18 02:32:36;;;;;;;2.70;0.70;;;;;;;;;;5130394;27;20027;-60
2023/07/18 02:35:02;;;;;;;3.60;1.00;;;;;;;;;;5132404;27;20362;-61
2023/07/18 02:37:27;;;;;;;3.55;0.85;;;;;;;;;;5132128;27;20091;-61
2023/07/18 02:39:52;;;;;;;2.30;0.83;;;;;;;;;;5132492;27;20007;-59
2023/07/18 02:42:17;;;;;;;3.30;0.75;;;;;;;;;;5132099;27;20102;-60
2023/07/18 02:44:43;;;;;;;2.30;0.80;;;;;;;;;;5132141;27;20083;-61
2023/07/18 02:47:09;;;;;;;4.82;0.90;;;;;;;;;;5115078;27;20100;-63
2023/07/18 02:49:34;;;;;;;3.60;0.90;;;;;;;;;;5112522;28;20018;-61
2023/07/18 02:51:59;;;;;;;3.97;1.00;;;;;;;;;;5112212;28;20540;-60
2023/07/18 02:54:25;;;;;;;3.63;0.90;;;;;;;;;;5111916;28;20024;-60
2023/07/18 02:56:50;;;;;;;2.78;1.08;;;;;;;;;;5111526;28;20019;-62
2023/07/18 02:59:20;;;;;;;3.07;0.90;;;;;;;;;;5111139;28;20027;-60
2023/07/18 03:01:46;;;;;;;2.70;0.95;;;;;;;;;;5111740;28;20023;-61
2023/07/18 03:04:11;;;;;;;3.00;0.80;;;;;;;;;;5110745;28;20023;-60
2023/07/18 03:06:36;;;;;;;3.42;1.00;;;;;;;;;;5111351;28;20023;-61
2023/07/18 03:09:02;;;;;;;4.00;0.90;;;;;;;;;;5111342;28;20081;-61
2023/07/18 03:11:27;;;;;;;3.13;1.00;;;;;;;;;;5111192;28;20046;-61
2023/07/18 03:13:52;;;;;;;3.17;1.10;;;;;;;;;;5110576;28;20102;-59
2023/07/18 03:16:17;;;;;;;3.63;1.10;;;;;;;;;;5111148;28;20028;-59
2023/07/18 03:18:42;;;;;;;2.87;0.80;;;;;;;;;;5111273;28;20389;-60
2023/07/18 03:21:07;;;;;;;2.70;0.90;;;;;;;;;;5111415;28;20015;-60
2023/07/18 03:23:33;;;;;;;2.47;0.80;;;;;;;;;;5110680;28;20491;-59
2023/07/18 03:25:58;;;;;;;2.70;0.80;;;;;;;;;;5111105;28;20027;-59
2023/07/18 03:28:23;;;;;;;3.70;1.10;;;;;;;;;;5112153;28;20022;-59
2023/07/18 03:30:48;;;;;;;2.97;0.87;;;;;;;;;;5131597;28;20015;-62
2023/07/18 03:33:15;;;;;;;3.20;0.77;;;;;;;;;;5131138;27;20019;-62
2023/07/18 03:35:40;;;;;;;2.88;0.80;;;;;;;;;;5131434;27;20111;-61
2023/07/18 03:38:05;;;;;;;3.72;0.98;;;;;;;;;;5131379;27;20098;-61
2023/07/18 03:40:31;;;;;;;2.63;0.60;;;;;;;;;;5131538;28;20023;-62
2023/07/18 03:42:56;;;;;;;2.30;0.60;;;;;;;;;;5130722;27;20478;-60
2023/07/18 03:45:21;;;;;;;2.53;0.80;;;;;;;;;;5131317;28;20026;-62
2023/07/18 03:47:46;;;;;;;3.80;1.00;;;;;;;;;;5130140;27;20027;-60
2023/07/18 03:50:12;;;;;;;5.20;1.03;;;;;;;;;;5131226;27;20031;-61
2023/07/18 03:52:37;;;;;;;2.90;0.98;;;;;;;;;;5114568;27;20099;-60
2023/07/18 03:55:03;;;;;;;5.83;0.90;;;;;;;;;;5110705;28;20039;-61
2023/07/18 03:57:32;;;;;;;3.20;0.80;;;;;;;;;;5110869;28;20016;-60
2023/07/18 03:59:57;;;;;;;3.50;1.10;;;;;;;;;;5110647;28;20486;-60
2023/07/18 04:02:22;;;;;;;2.80;0.97;;;;;;;;;;5110566;28;20102;-59
2023/07/18 04:04:47;;;;;;;3.60;0.80;;;;;;;;;;5110283;28;20480;-60
2023/07/18 04:07:12;;;;;;;3.60;0.90;;;;;;;;;;5110714;28;20556;-61
2023/07/18 04:09:38;;;;;;;3.17;1.00;;;;;;;;;;5112212;28;20027;-60
2023/07/18 04:12:03;;;;;;;2.93;0.83;;;;;;;;;;5112583;28;20026;-61
2023/07/18 04:14:28;;;;;;;2.30;0.88;;;;;;;;;;5110263;28;20371;-61
2023/07/18 04:16:53;;;;;;;3.03;0.90;;;;;;;;;;5110975;28;20012;-60
2023/07/18 04:19:19;;;;;;;4.30;1.35;;;;;;;;;;5110605;28;20482;-61
2023/07/18 04:21:44;;;;;;;3.25;1.00;;;;;;;;;;5110637;28;20023;-61
2023/07/18 04:24:09;;;;;;;2.17;0.73;;;;;;;;;;5110192;28;20447;-61
2023/07/18 04:26:34;;;;;;;2.92;1.00;;;;;;;;;;5110447;28;20058;-61
2023/07/18 04:29:00;;;;;;;3.10;0.97;;;;;;;;;;5128930;27;20028;-62
2023/07/18 04:31:25;;;;;;;2.70;0.87;;;;;;;;;;5134980;27;20035;-61
2023/07/18 04:33:50;;;;;;;2.50;0.80;;;;;;;;;;5134390;27;20026;-62
2023/07/18 04:36:16;;;;;;;2.92;0.75;;;;;;;;;;5134744;27;20509;-60
2023/07/18 04:38:41;;;;;;;3.17;0.90;;;;;;;;;;5134808;27;20023;-62
2023/07/18 04:41:06;;;;;;;3.22;0.80;;;;;;;;;;5134255;27;20031;-60
2023/07/18 04:43:31;;;;;;;3.10;0.80;;;;;;;;;;5133742;27;20382;-61
2023/07/18 04:45:57;;;;;;;2.97;0.80;;;;;;;;;;5134048;27;20038;-60
2023/07/18 04:48:22;;;;;;;2.63;0.70;;;;;;;;;;5134583;27;20076;-61
2023/07/18 04:50:56;;;;;;;4.27;0.90;;;;;;;;;;5134313;27;20422;-59
2023/07/18 04:53:21;;;;;;;3.58;0.82;;;;;;;;;;5133863;27;20110;-59
2023/07/18 04:55:50;;;;;;;2.95;1.10;;;;;;;;;;5134401;27;20042;-62
2023/07/18 04:58:15;;;;;;;3.25;1.15;;;;;;;;;;5121523;27;20028;-62
2023/07/18 05:00:40;;;;;;;2.30;0.73;;;;;;;;;;5113430;28;20066;-60
2023/07/18 05:03:05;;;;;;;3.60;0.83;;;;;;;;;;5113012;27;20489;-62
2023/07/18 05:05:30;;;;;;;3.55;0.90;;;;;;;;;;5113466;28;20024;-62
2023/07/18 05:07:58;;;;;;;2.73;0.80;;;;;;;;;;5113359;28;20051;-59
2023/07/18 05:10:23;;;;;;;2.97;0.90;;;;;;;;;;5113327;28;20781;-62
2023/07/18 05:12:51;;;;;;;2.40;0.90;;;;;;;;;;5112694;28;20032;-62
2023/07/18 05:15:17;;;;;;;3.05;0.95;;;;;;;;;;5113184;28;20452;-61
2023/07/18 05:17:42;;;;;;;4.60;0.90;;;;;;;;;;5113333;28;20050;-61
2023/07/18 05:20:10;;;;;;;3.33;0.90;;;;;;;;;;5113409;28;20026;-61
2023/07/18 05:22:35;;;;;;;3.53;0.90;;;;;;;;;;5112777;28;20038;-61
2023/07/18 05:25:00;;;;;;;3.93;1.37;;;;;;;;;;5113263;27;20055;-62
2023/07/18 05:27:26;;;;;;;4.63;1.03;;;;;;;;;;5121651;27;20017;-62
2023/07/18 05:29:51;;;;;;;2.97;1.00;;;;;;;;;;5133856;27;20971;-62
2023/07/18 05:32:16;;;;;;;3.00;1.07;;;;;;;;;;5133278;27;20015;-61
2023/07/18 05:34:41;;;;;;;2.87;0.90;;;;;;;;;;5133028;27;20015;-61
2023/07/18 05:37:06;;;;;;;5.10;1.10;;;;;;;;;;5133210;27;20029;-61
2023/07/18 05:39:32;;;;;;;2.50;1.00;;;;;;;;;;5133308;27;20421;-63
2023/07/18 05:41:57;;;;;;;4.20;1.00;;;;;;;;;;5133004;27;20023;-62
2023/07/18 05:44:22;;;;;;;2.42;0.90;;;;;;;;;;5132830;27;20037;-62
2023/07/18 05:46:47;;;;;;;4.90;1.10;;;;;;;;;;5133079;27;20019;-59
2023/07/18 05:49:14;;;;;;;3.23;1.00;;;;;;;;;;5133981;27;20030;-62
2023/07/18 05:51:39;;;;;;;2.60;1.00;;;;;;;;;;5135131;27;20019;-60
2023/07/18 05:54:04;;;;;;;3.43;0.90;;;;;;;;;;5133703;27;20027;-61
2023/07/18 05:56:30;;;;;;;3.13;1.03;;;;;;;;;;5136011;27;20493;-61
2023/07/18 05:58:55;;;;;;;2.78;0.93;;;;;;;;;;5134823;27;20771;-60
2023/07/18 06:01:20;;;;;;;3.57;1.00;;;;;;;;;;5121815;27;20514;-61
2023/07/18 06:03:45;;;;;;;3.43;1.10;;;;;;;;;;5111839;28;20023;-60
2023/07/18 06:06:11;;;;;;;4.80;1.20;;;;;;;;;;5112400;28;20019;-60
2023/07/18 06:08:37;;;;;;;3.80;1.00;;;;;;;;;;5111339;28;20099;-61
2023/07/18 06:11:02;;;;;;;4.22;1.27;;;;;;;;;;5112087;28;20019;-60
2023/07/18 06:13:27;;;;;;;5.83;1.27;;;;;;;;;;5112306;28;20019;-59
2023/07/18 06:15:52;;;;;;;3.00;1.13;;;;;;;;;;5112858;28;20102;-61
2023/07/18 06:18:18;;;;;;;3.73;1.33;;;;;;;;;;5113007;28;20033;-61
2023/07/18 06:20:43;;;;;;;;;;;;;;;;;;5116717;28;20020;-61
2023/07/18 06:23:09;;;;;;;3.63;1.20;;;;;;;;;;5119357;28;19943;-61
2023/07/18 06:25:35;;;;;;;4.93;1.30;;;;;;;;;;5121023;27;20042;-59
2023/07/18 06:28:00;;;;;;;4.78;1.20;;;;;;;;;;5135812;27;20493;-60
2023/07/18 06:30:25;;;;;;;7.20;1.10;;;;;;;;;;5133564;27;20470;-60
2023/07/18 06:32:51;;;;;;;3.97;1.10;;;;;;;;;;5132109;27;20023;-60
2023/07/18 06:35:16;;;;;;;3.00;0.90;;;;;;;;;;5114681;27;20051;-62
2023/07/18 06:37:41;;;;;;;4.13;1.10;;;;;;;;;;5111231;28;20465;-62
2023/07/18 06:40:07;;;;;;;3.90;1.15;;;;;;;;;;5111762;28;20038;-61
2023/07/18 06:42:32;;;;;;;3.53;1.02;;;;;;;;;;5111214;28;20020;-61
2023/07/18 06:44:57;;;;;;;7.43;1.40;;;;;;;;;;5111505;28;20119;-60
2023/07/18 06:47:23;;;;;;;4.93;1.00;;;;;;;;;;5110191;28;20022;-59
2023/07/18 06:49:48;;;;;;;3.67;1.30;;;;;;;;;;5111549;27;20494;-60
2023/07/18 06:52:13;;;;;;;3.97;1.30;;;;;;;;;;5110396;28;20111;-60
2023/07/18 06:54:38;;;;;;;4.65;1.30;;;;;;;;;;5110970;28;20016;-61
2023/07/18 06:57:04;;;;;;;4.13;1.20;;;;;;;;;;5111781;28;20024;-62
2023/07/18 06:59:29;;;;;;;5.28;1.25;;;;;;;;;;5111136;28;20015;-61
2023/07/18 07:01:54;;;;;;;5.18;1.30;;;;;;;;;;5111260;27;20073;-62
2023/07/18 07:04:20;;;;;;;3.77;1.00;;;;;;;;;;5110558;28;20038;-62
2023/07/18 07:06:45;;;;;;;3.70;1.20;;;;;;;;;;5111472;28;20065;-62
2023/07/18 07:09:13;;;;;;;4.47;1.40;;;;;;;;;;5111273;28;20158;-61
2023/07/18 07:11:38;;;;;;;3.70;1.20;;;;;;;;;;5111181;28;20156;-61
2023/07/18 07:14:05;;;;;;;4.20;1.40;;;;;;;;;;5110688;28;20056;-61
2023/07/18 07:16:30;;;;;;;4.18;1.40;;;;;;;;;;5111629;28;20091;-60
2023/07/18 07:18:55;;;;;;;3.43;1.00;;;;;;;;;;5111238;28;20538;-61
2023/07/18 07:21:20;;;;;;;3.90;1.30;;;;;;;;;;5111467;28;20428;-61
2023/07/18 07:23:45;;;;;;;3.63;1.23;;;;;;;;;;5110806;28;20047;-60
2023/07/18 07:26:10;;;;;;;4.10;1.30;;;;;;;;;;5128380;27;20037;-61
2023/07/18 07:28:36;;;;;;;5.07;1.50;;;;;;;;;;5131593;28;20023;-61
2023/07/18 07:31:03;;;;;;;3.50;1.23;;;;;;;;;;5131795;27;20042;-61
2023/07/18 07:33:28;;;;;;;4.75;1.33;;;;;;;;;;5129172;27;20445;-62
2023/07/18 07:35:53;;;;;;;3.97;1.27;;;;;;;;;;5131763;27;20106;-59
2023/07/18 07:38:18;;;;;;;4.50;1.40;;;;;;;;;;5132031;27;20026;-61
2023/07/18 07:40:43;;;;;;;3.53;1.30;;;;;;;;;;5131973;27;20398;-63
2023/07/18 07:43:09;;;;;;;5.60;1.70;;;;;;;;;;5131331;27;20486;-61
2023/07/18 07:45:34;;;;;;;4.43;1.10;;;;;;;;;;5131739;27;20055;-61
2023/07/18 07:47:59;;;;;;;4.03;1.20;;;;;;;;;;5131412;27;20494;-62
2023/07/18 07:50:24;;;;;;;5.63;1.23;;;;;;;;;;5131389;27;20022;-60
2023/07/18 07:52:49;;;;;;;4.20;1.40;;;;;;;;;;5130874;27;20020;-61
2023/07/18 07:55:15;;;;;;;3.00;1.03;;;;;;;;;;5131537;27;20026;-61
2023/07/18 07:57:40;;;;;;;5.55;1.30;;;;;;;;;;5131142;27;20107;-62
2023/07/18 08:00:07;;;;;;;4.90;1.30;;;;;;;;;;5131315;27;20023;-62
2023/07/18 08:02:32;;;;;;;;;;;;;;;;;;5112792;27;20026;-63
2023/07/18 08:04:57;;;;;;;4.30;1.33;;;;;;;;;;5114634;28;19912;-62
2023/07/18 08:07:22;;;;;;;3.27;1.10;;;;;;;;;;5114124;27;20027;-58
2023/07/18 08:09:47;;;;;;;3.00;1.08;;;;;;;;;;5114638;28;20390;-60
2023/07/18 08:12:13;;;;;;;4.40;1.40;;;;;;;;;;5114513;28;20046;-61
2023/07/18 08:14:38;;;;;;;3.60;1.10;;;;;;;;;;5114240;28;20524;-60
2023/07/18 08:17:04;;;;;;;5.30;1.30;;;;;;;;;;5114415;28;20103;-61
2023/07/18 08:19:31;;;;;;;4.53;1.25;;;;;;;;;;5114482;28;20028;-61
2023/07/18 08:21:57;;;;;;;3.17;1.30;;;;;;;;;;5114431;28;20015;-62
2023/07/18 08:24:22;;;;;;;3.40;1.17;;;;;;;;;;5123777;27;20030;-61
2023/07/18 08:26:47;;;;;;;4.57;1.20;;;;;;;;;;5135732;27;20039;-61
2023/07/18 08:29:12;;;;;;;4.07;1.30;;;;;;;;;;5135376;27;20049;-61
2023/07/18 08:31:37;;;;;;;6.37;1.20;;;;;;;;;;5135502;27;20027;-61
2023/07/18 08:34:02;;;;;;;3.90;1.30;;;;;;;;;;5136063;27;20526;-61
2023/07/18 08:36:29;;;;;;;3.85;1.30;;;;;;;;;;5136290;27;20112;-62
2023/07/18 08:38:54;;;;;;;4.47;1.50;;;;;;;;;;5136496;27;20107;-61
2023/07/18 08:41:20;;;;;;;3.40;1.30;;;;;;;;;;5136739;27;20057;-62
2023/07/18 08:43:46;;;;;;;4.05;1.33;;;;;;;;;;5134392;27;20015;-61
2023/07/18 08:46:13;;;;;;;5.30;1.27;;;;;;;;;;5133905;27;20023;-60
2023/07/18 08:48:39;;;;;;;4.15;1.20;;;;;;;;;;5135625;27;20019;-59
2023/07/18 08:51:04;;;;;;;4.63;1.35;;;;;;;;;;5136771;27;20030;-61
2023/07/18 08:53:29;;;;;;;4.37;1.30;;;;;;;;;;5136862;27;20107;-59
2023/07/18 08:55:56;;;;;;;4.20;1.40;;;;;;;;;;5133095;27;20027;-60
2023/07/18 08:58:22;;;;;;;4.72;1.40;;;;;;;;;;5113275;27;20096;-60
2023/07/18 09:00:47;;;;;;;4.80;1.52;;;;;;;;;;5112362;28;20020;-60
2023/07/18 09:03:13;;;;;;;4.03;1.43;;;;;;;;;;5113221;28;20518;-62
2023/07/18 09:05:38;;;;;;;4.75;1.65;;;;;;;;;;5113501;28;20031;-61
2023/07/18 09:08:04;;;;;;;4.57;1.33;;;;;;;;;;5113411;28;20020;-60
2023/07/18 09:10:30;;;;;;;6.60;1.30;;;;;;;;;;5112930;27;20031;-60
2023/07/18 09:13:02;;;;;;;5.00;1.48;;;;;;;;;;5112973;28;20020;-61
2023/07/18 09:15:27;;;;;;;5.82;1.52;;;;;;;;;;5113014;27;20024;-63
2023/07/18 09:17:53;;;;;;;4.80;1.58;;;;;;;;;;5113421;27;20501;-61
2023/07/18 09:20:18;;;;;;;5.78;1.55;;;;;;;;;;5112276;28;20663;-61
2023/07/18 09:22:44;;;;;;;4.00;1.27;;;;;;;;;;5117871;27;20417;-62
2023/07/18 09:25:12;;;;;;;5.33;1.50;;;;;;;;;;5128894;27;20019;-61
2023/07/18 09:27:38;;;;;;;4.28;1.42;;;;;;;;;;5122306;27;20475;-63
2023/07/18 09:30:03;;;;;;;3.40;1.20;;;;;;;;;;5113387;28;20022;-60
2023/07/18 09:32:29;;;;;;;4.40;1.45;;;;;;;;;;5113046;28;20080;-62
2023/07/18 09:34:55;;;;;;;5.13;1.38;;;;;;;;;;5112410;28;20019;-62
2023/07/18 09:37:20;;;;;;;4.20;1.50;;;;;;;;;;5112978;28;20019;-62
2023/07/18 09:39:46;;;;;;;7.30;1.42;;;;;;;;;;5124683;27;20015;-62
2023/07/18 09:42:11;;;;;;;5.85;1.50;;;;;;;;;;5131835;27;20490;-62
2023/07/18 09:44:37;;;;;;;4.00;1.38;;;;;;;;;;5132686;27;20035;-61
2023/07/18 09:47:02;;;;;;;3.88;1.30;;;;;;;;;;5133445;27;20026;-61
2023/07/18 09:49:28;;;;;;;5.30;1.80;;;;;;;;;;5133277;27;20471;-61
2023/07/18 09:52:03;;;;;;;4.32;1.60;;;;;;;;;;5130131;27;20019;-59
2023/07/18 09:54:29;;;;;;;4.10;1.52;;;;;;;;;;5111588;27;20019;-63
2023/07/18 09:56:57;;;;;;;5.30;1.70;;;;;;;;;;5112688;28;20023;-60
2023/07/18 09:59:23;;;;;;;4.97;1.35;;;;;;;;;;5112516;28;20016;-61
2023/07/18 10:01:51;;;;;;;5.03;1.50;;;;;;;;;;5112589;28;20030;-60
2023/07/18 10:04:18;;;;;;;4.85;1.60;;;;;;;;;;5111660;28;20036;-62
2023/07/18 10:06:44;;;;;;;6.13;1.50;;;;;;;;;;5112568;28;20017;-62
2023/07/18 10:09:09;;;;;;;6.95;1.60;;;;;;;;;;5112176;28;20058;-60
2023/07/18 10:11:53;;;;;;;4.33;1.63;;;;;;;;;;5112474;28;20026;-61
2023/07/18 10:14:18;;;;;;;5.43;1.50;;;;;;;;;;5111697;28;20465;-62
2023/07/18 10:16:52;;;;;;;5.53;1.70;;;;;;;;;;5112172;28;20475;-61
2023/07/18 10:19:18;;;;;;;6.25;1.40;;;;;;;;;;5112152;28;20019;-60
2023/07/18 10:21:44;;;;;;;5.15;1.50;;;;;;;;;;5117705;27;20026;-61
2023/07/18 10:24:21;;;;;;;5.53;1.40;;;;;;;;;;5132004;27;20497;-61
2023/07/18 10:26:48;;;;;;;3.88;1.52;;;;;;;;;;5132003;27;20019;-61
2023/07/18 10:29:13;;;;;;;3.60;1.35;;;;;;;;;;5132623;27;20094;-63
2023/07/18 10:31:38;;;;;;;5.30;1.42;;;;;;;;;;5132473;27;20090;-61
2023/07/18 10:34:09;;;;;;;4.13;1.70;;;;;;;;;;5122425;27;20015;-61
2023/07/18 10:36:35;;;;;;;5.50;1.73;;;;;;;;;;5112088;28;20023;-61
2023/07/18 10:39:05;;;;;;;3.83;1.40;;;;;;;;;;5111670;28;20007;-63
2023/07/18 10:41:30;;;;;;;5.00;1.50;;;;;;;;;;5112093;28;20033;-60
2023/07/18 10:43:55;;;;;;;4.53;1.60;;;;;;;;;;5110978;28;20487;-61
2023/07/18 10:46:20;;;;;;;5.28;1.50;;;;;;;;;;5112283;27;20056;-60
2023/07/18 10:48:52;;;;;;;4.03;1.27;;;;;;;;;;5131677;27;20030;-61
2023/07/18 10:51:17;;;;;;;4.30;1.50;;;;;;;;;;5133757;27;20039;-61
2023/07/18 10:53:44;;;;;;;4.80;1.50;;;;;;;;;;5135792;27;20019;-61
2023/07/18 10:56:18;;;;;;;7.05;1.88;;;;;;;;;;5137159;27;20041;-61
2023/07/18 10:58:44;;;;;;;4.78;1.50;;;;;;;;;;5123673;27;20076;-60
2023/07/18 11:01:09;;;;;;;5.87;1.60;;;;;;;;;;5148348;27;20019;-61
2023/07/18 11:03:35;;;;;;;;;;;;;;;;;;5152620;27;20091;-61
2023/07/18 11:06:01;;;;;;;3.95;1.50;;;;;;;;;;5152549;27;19911;-60
2023/07/18 11:08:27;;;;;;;;;;;;;;;;;;5153116;27;20367;-62
2023/07/18 11:10:53;;;;;;;4.00;1.50;;;;;;;;;;5152488;27;19903;-61
2023/07/18 11:13:18;;;;;;;5.07;1.50;;;;;;;;;;5151752;27;20010;-61
2023/07/18 11:15:43;;;;;;;5.70;1.70;;;;;;;;;;5152812;27;20474;-61
2023/07/18 11:18:08;;;;;;;;;;;;;;;;;;5153220;27;20026;-59
2023/07/18 11:20:35;;;;;;;6.72;1.67;;;;;;;;;;5148224;27;19907;-61
2023/07/18 11:23:00;;;;;;;5.93;1.50;;;;;;;;;;5131282;27;20023;-61
2023/07/18 11:25:25;;;;;;;5.07;1.83;;;;;;;;;;5131621;28;20026;-61
2023/07/18 11:27:50;;;;;;;4.50;1.67;;;;;;;;;;5131793;28;20096;-62
2023/07/18 11:30:20;;;;;;;4.75;1.45;;;;;;;;;;5131663;27;20466;-59
2023/07/18 11:32:45;;;;;;;8.50;1.83;;;;;;;;;;5131548;27;20031;-62
2023/07/18 11:35:17;;;;;;;5.43;1.80;;;;;;;;;;5131511;28;20026;-60
2023/07/18 11:37:42;;;;;;;4.88;1.80;;;;;;;;;;5134265;27;20095;-60
2023/07/18 11:40:07;;;;;;;;;;;;;;;;;;5136486;27;20517;-61
2023/07/18 11:42:48;;;;;;;4.90;1.50;;;;;;;;;;5136363;27;19910;-60
2023/07/18 11:45:17;;;;;;;5.40;1.33;;;;;;;;;;5138207;27;20389;-60
2023/07/18 11:47:44;;;;;;;6.18;1.58;;;;;;;;;;5137682;27;20383;-61
2023/07/18 11:50:09;;;;;;;4.70;1.60;;;;;;;;;;5137482;27;20559;-62
2023/07/18 11:52:35;;;;;;;;;;;;;;;;;;5136156;27;20016;-63
2023/07/18 11:55:00;;;;;;;4.38;1.60;;;;;;;;;;5135491;27;19930;-62
2023/07/18 11:57:25;;;;;;;3.88;1.50;;;;;;;;;;5135635;27;20015;-62
2023/07/18 11:59:50;;;;;;;;;;;;;;;;;;5135880;27;20390;-62
2023/07/18 12:02:15;;;;;;;4.95;1.77;;;;;;;;;;5135095;27;19904;-62
2023/07/18 12:04:40;;;;;;;;;;;;;;;;;;5131119;27;20038;-61
2023/07/18 12:07:06;;;;;;;5.97;1.55;;;;;;;;;;5135690;27;19938;-59
2023/07/18 12:09:32;;;;;;;5.35;1.45;;;;;;;;;;5135425;27;20029;-62
2023/07/18 12:11:57;;;;;;;5.97;1.50;;;;;;;;;;5135462;27;20094;-62
2023/07/18 12:14:22;;;;;;;;;;;;;;;;;;5135490;27;20424;-61
2023/07/18 12:16:47;;;;;;;5.68;1.50;;;;;;;;;;5121260;27;19916;-60
2023/07/18 12:19:12;;;;;;;5.27;1.50;;;;;;;;;;5118687;27;20015;-62
2023/07/18 12:21:38;;;;;;;;;;;;;;;;;;5136315;27;20550;-62
2023/07/18 12:24:04;;;;;;;5.88;1.60;;;;;;;;;;5134947;27;19910;-63
2023/07/18 12:26:29;;;;;;;;;;;;;;;;;;5127306;27;20035;-62
2023/07/18 12:28:54;;;;;;;3.72;1.50;;;;;;;;;;5114941;28;19908;-63
2023/07/18 12:31:19;;;;;;;4.60;1.70;;;;;;;;;;5114370;27;20015;-62
2023/07/18 12:33:45;;;;;;;;;;;;;;;;;;5114178;28;20019;-61
2023/07/18 12:36:12;;;;;;;4.93;1.70;;;;;;;;;;5109307;27;19953;-60
2023/07/18 12:38:37;;;;;;;5.95;1.60;;;;;;;;;;5105793;27;20122;-58
2023/07/18 12:41:02;;;;;;;;;;;;;;;;;;5107036;27;20020;-61
2023/07/18 12:43:27;;;;;;;5.00;1.60;;;;;;;;;;5108199;27;19923;-62
2023/07/18 12:45:53;;;;;;;;;;;;;;;;;;5104924;27;20062;-61
2023/07/18 12:48:18;;;;;;;5.47;1.58;;;;;;;;;;5105195;27;19919;-63
2023/07/18 12:50:43;;;;;;;;;;;;;;;;;;5105504;27;20019;-60
2023/07/18 12:53:09;;;;;;;4.73;1.87;;;;;;;;;;5105848;27;20383;-62
2023/07/18 12:55:34;;;;;;;;;;;;;;;;;;5106624;27;20032;-60
2023/07/18 12:57:59;;;;;;;5.18;1.70;;;;;;;;;;5106208;27;20006;-59
2023/07/18 13:00:24;;;;;;;;;;;;;;;;;;5106915;27;20020;-62
2023/07/18 13:02:49;;;;;;;5.07;1.80;;;;;;;;;;5112858;27;19934;-61
2023/07/18 13:05:14;;;;;;;;;;;;;;;;;;5112523;27;20039;-63
2023/07/18 13:07:40;;;;;;;4.32;1.50;;;;;;;;;;5113468;27;19912;-60
2023/07/18 13:10:05;;;;;;;;;;;;;;;;;;5103018;27;20024;-59
2023/07/18 13:12:31;;;;;;;4.85;1.63;;;;;;;;;;5109171;27;19915;-61
2023/07/18 13:14:57;;;;;;;5.90;1.42;;;;;;;;;;5101364;27;20563;-61
2023/07/18 13:17:22;;;;;;;;;;;;;;;;;;5101480;27;20016;-63
2023/07/18 13:19:47;;;;;;;5.80;1.88;;;;;;;;;;5101712;27;19913;-61
2023/07/18 13:22:12;;;;;;;4.43;1.80;;;;;;;;;;5102428;27;20110;-60
2023/07/18 13:24:38;;;;;;;;;;;;;;;;;;5100866;27;20031;-60
2023/07/18 13:27:03;;;;;;;4.70;1.90;;;;;;;;;;5102925;27;19951;-61
2023/07/18 13:29:28;;;;;;;5.57;1.90;;;;;;;;;;5101112;27;20023;-59
2023/07/18 13:31:53;;;;;;;;;;;;;;;;;;5101369;27;20016;-62
2023/07/18 13:34:21;;;;;;;4.75;1.42;;;;;;;;;;5100464;27;20398;-60
2023/07/18 13:36:46;;;;;;;3.97;1.75;;;;;;;;;;5101861;27;20342;-60
2023/07/18 13:39:11;;;;;;;;;;;;;;;;;;5108150;27;20015;-59
2023/07/18 13:41:37;;;;;;;5.90;1.60;;;;;;;;;;5100543;27;20355;-60
2023/07/18 13:44:02;;;;;;;3.87;1.67;;;;;;;;;;5099029;27;20024;-61
2023/07/18 13:46:27;;;;;;;;;;;;;;;;;;5101853;27;20019;-61
2023/07/18 13:48:52;;;;;;;3.92;1.45;;;;;;;;;;5100757;27;19962;-59
2023/07/18 13:51:17;;;;;;;;;;;;;;;;;;5101774;27;20050;-61
2023/07/18 13:53:42;;;;;;;7.05;1.70;;;;;;;;;;5101589;27;21456;-59
2023/07/18 13:56:08;;;;;;;;;;;;;;;;;;5101274;27;20399;-60
2023/07/18 13:58:33;;;;;;;6.13;1.63;;;;;;;;;;5102232;27;19927;-59
2023/07/18 14:00:58;;;;;;;;;;;;;;;;;;5102243;27;20077;-61
2023/07/18 14:03:23;;;;;;;4.45;1.48;;;;;;;;;;5100487;27;20014;-62
2023/07/18 14:05:48;;;;;;;;;;;;;;;;;;5102117;27;20032;-62
2023/07/18 14:08:13;;;;;;;4.53;1.50;;;;;;;;;;5100776;27;19971;-61
2023/07/18 14:10:38;;;;;;;;;;;;;;;;;;5100953;27;20032;-62
2023/07/18 14:13:04;;;;;;;4.50;1.70;;;;;;;;;;5102536;27;20885;-61
2023/07/18 14:15:29;;;;;;;;;;;;;;;;;;5099804;27;20016;-60
2023/07/18 14:17:55;;;;;;;4.47;1.70;;;;;;;;;;5099326;27;19969;-61
2023/07/18 14:20:20;;;;;;;;;;;;;;;;;;5101093;27;20011;-60
2023/07/18 14:22:46;;;;;;;3.97;1.45;;;;;;;;;;5100012;27;19915;-59
2023/07/18 14:25:11;;;;;;;4.15;1.35;;;;;;;;;;5100352;27;20036;-59
2023/07/18 14:27:36;;;;;;;;;;;;;;;;;;5100817;27;20536;-61
2023/07/18 14:30:02;;;;;;;5.13;1.63;;;;;;;;;;5099893;27;19924;-62
2023/07/18 14:32:27;;;;;;;4.85;1.50;;;;;;;;;;5101283;27;20461;-60
2023/07/18 14:34:52;;;;;;;;;;;;;;;;;;5102530;27;20027;-61
2023/07/18 14:37:18;;;;;;;4.60;1.20;;;;;;;;;;5100630;27;20369;-61
2023/07/18 14:39:43;;;;;;;;;;;;;;;;;;5103190;27;20461;-62
2023/07/18 14:42:08;;;;;;;5.27;1.60;;;;;;;;;;5100505;27;19911;-63
2023/07/18 14:44:33;;;;;;;;;;;;;;;;;;5101516;27;20494;-62